sensor_id;sensor_type;location;lat;lon;timestamp;P1;durP1;ratioP1;P2;durP2;ratioP2
8544;SDS011;4310;51.054;6.994;2022-08-21T00:00:54;44.83;;;42.10;;
8544;SDS011;4310;51.054;6.994;2022-08-21T00:01:57;46.90;;;43.87;;
8544;SDS011;4310;51.054;6.994;2022-08-21T00:03:01;45.43;;;42.37;;
8544;SDS011;4310;51.054;6.994;2022-08-21T00:04:06;42.10;;;39.50;;
8544;SDS011;4310;51.054;6.994;2022-08-21T00:05:10;42.90;;;39.83;;
8544;SDS011;4310;51.054;6.994;2022-08-21T00:06:14;44.63;;;41.63;;
8544;SDS011;4310;51.054;6.994;2022-08-21T00:07:19;44.20;;;41.42;;
8544;SDS011;4310;51.054;6.994;2022-08-21T00:09:36;40.92;;;38.30;;
8544;SDS011;4310;51.054;6.994;2022-08-21T00:10:40;42.08;;;39.35;;
8544;SDS011;4310;51.054;6.994;2022-08-21T00:11:44;46.13;;;43.15;;
8544;SDS011;4310;51.054;6.994;2022-08-21T00:12:49;48.08;;;45.08;;
8544;SDS011;4310;51.054;6.994;2022-08-21T00:13:53;47.53;;;44.63;;
8544;SDS011;4310;51.054;6.994;2022-08-21T00:14:57;48.98;;;45.85;;
8544;SDS011;4310;51.054;6.994;2022-08-21T00:16:01;43.17;;;40.45;;
8544;SDS011;4310;51.054;6.994;2022-08-21T00:17:05;45.88;;;43.10;;
8544;SDS011;4310;51.054;6.994;2022-08-21T00:18:10;48.47;;;45.57;;
8544;SDS011;4310;51.054;6.994;2022-08-21T00:19:14;48.60;;;45.70;;
8544;SDS011;4310;51.054;6.994;2022-08-21T00:20:18;47.05;;;44.15;;
8544;SDS011;4310;51.054;6.994;2022-08-21T00:21:22;48.28;;;45.12;;
8544;SDS011;4310;51.054;6.994;2022-08-21T00:22:27;54.73;;;51.23;;
8544;SDS011;4310;51.054;6.994;2022-08-21T00:23:32;56.45;;;52.93;;
8544;SDS011;4310;51.054;6.994;2022-08-21T00:25:47;58.63;;;55.12;;
8544;SDS011;4310;51.054;6.994;2022-08-21T00:26:51;59.75;;;56.30;;
8544;SDS011;4310;51.054;6.994;2022-08-21T00:27:55;61.10;;;57.60;;
8544;SDS011;4310;51.054;6.994;2022-08-21T00:28:59;60.40;;;56.95;;
8544;SDS011;4310;51.054;6.994;2022-08-21T00:30:03;60.38;;;56.90;;
8544;SDS011;4310;51.054;6.994;2022-08-21T00:31:07;62.25;;;58.58;;
8544;SDS011;4310;51.054;6.994;2022-08-21T00:32:11;59.25;;;55.85;;
8544;SDS011;4310;51.054;6.994;2022-08-21T00:33:15;60.80;;;57.23;;
8544;SDS011;4310;51.054;6.994;2022-08-21T00:34:19;61.58;;;57.88;;
8544;SDS011;4310;51.054;6.994;2022-08-21T00:35:24;69.75;;;65.90;;
8544;SDS011;4310;51.054;6.994;2022-08-21T00:36:28;73.10;;;69.12;;
8544;SDS011;4310;51.054;6.994;2022-08-21T00:37:32;76.85;;;72.78;;
8544;SDS011;4310;51.054;6.994;2022-08-21T00:39:47;79.70;;;75.70;;
8544;SDS011;4310;51.054;6.994;2022-08-21T00:40:52;78.63;;;74.63;;
8544;SDS011;4310;51.054;6.994;2022-08-21T00:41:56;75.20;;;71.17;;
8544;SDS011;4310;51.054;6.994;2022-08-21T00:43:00;74.50;;;70.40;;
8544;SDS011;4310;51.054;6.994;2022-08-21T00:44:06;73.62;;;69.55;;
8544;SDS011;4310;51.054;6.994;2022-08-21T00:45:10;73.35;;;69.50;;
8544;SDS011;4310;51.054;6.994;2022-08-21T00:46:14;74.35;;;70.45;;
8544;SDS011;4310;51.054;6.994;2022-08-21T00:47:18;73.00;;;69.12;;
8544;SDS011;4310;51.054;6.994;2022-08-21T00:48:23;70.10;;;66.40;;
8544;SDS011;4310;51.054;6.994;2022-08-21T00:49:26;70.22;;;66.47;;
8544;SDS011;4310;51.054;6.994;2022-08-21T00:50:32;71.25;;;67.53;;
8544;SDS011;4310;51.054;6.994;2022-08-21T00:51:39;72.82;;;68.78;;
8544;SDS011;4310;51.054;6.994;2022-08-21T00:52:42;71.92;;;67.92;;
8544;SDS011;4310;51.054;6.994;2022-08-21T00:53:46;68.33;;;64.72;;
8544;SDS011;4310;51.054;6.994;2022-08-21T00:54:51;73.20;;;69.27;;
8544;SDS011;4310;51.054;6.994;2022-08-21T00:57:09;68.60;;;64.82;;
8544;SDS011;4310;51.054;6.994;2022-08-21T00:58:13;65.62;;;61.80;;
8544;SDS011;4310;51.054;6.994;2022-08-21T00:59:17;65.75;;;62.05;;
8544;SDS011;4310;51.054;6.994;2022-08-21T01:00:23;64.32;;;60.85;;
8544;SDS011;4310;51.054;6.994;2022-08-21T01:01:27;63.30;;;59.65;;
8544;SDS011;4310;51.054;6.994;2022-08-21T01:02:30;62.25;;;58.75;;
8544;SDS011;4310;51.054;6.994;2022-08-21T01:03:35;65.35;;;61.75;;
8544;SDS011;4310;51.054;6.994;2022-08-21T01:04:39;67.37;;;63.78;;
8544;SDS011;4310;51.054;6.994;2022-08-21T01:05:43;64.50;;;61.00;;
8544;SDS011;4310;51.054;6.994;2022-08-21T01:06:48;66.25;;;62.55;;
8544;SDS011;4310;51.054;6.994;2022-08-21T01:09:03;63.45;;;60.15;;
8544;SDS011;4310;51.054;6.994;2022-08-21T01:10:07;63.28;;;59.73;;
8544;SDS011;4310;51.054;6.994;2022-08-21T01:11:11;62.67;;;59.27;;
8544;SDS011;4310;51.054;6.994;2022-08-21T01:12:15;63.08;;;59.58;;
8544;SDS011;4310;51.054;6.994;2022-08-21T01:13:20;62.83;;;59.33;;
8544;SDS011;4310;51.054;6.994;2022-08-21T01:14:24;63.17;;;59.75;;
8544;SDS011;4310;51.054;6.994;2022-08-21T01:16:40;59.05;;;55.85;;
8544;SDS011;4310;51.054;6.994;2022-08-21T01:17:45;57.50;;;54.23;;
8544;SDS011;4310;51.054;6.994;2022-08-21T01:18:49;60.55;;;57.05;;
8544;SDS011;4310;51.054;6.994;2022-08-21T01:19:53;57.38;;;54.20;;
8544;SDS011;4310;51.054;6.994;2022-08-21T01:21:00;58.63;;;55.35;;
8544;SDS011;4310;51.054;6.994;2022-08-21T01:22:04;55.78;;;52.48;;
8544;SDS011;4310;51.054;6.994;2022-08-21T01:23:08;58.13;;;54.80;;
8544;SDS011;4310;51.054;6.994;2022-08-21T01:24:12;56.95;;;53.85;;
8544;SDS011;4310;51.054;6.994;2022-08-21T01:26:29;63.73;;;60.10;;
8544;SDS011;4310;51.054;6.994;2022-08-21T01:27:33;58.92;;;55.63;;
8544;SDS011;4310;51.054;6.994;2022-08-21T01:28:37;60.95;;;57.60;;
8544;SDS011;4310;51.054;6.994;2022-08-21T01:29:43;61.58;;;58.23;;
8544;SDS011;4310;51.054;6.994;2022-08-21T01:30:47;63.92;;;60.33;;
8544;SDS011;4310;51.054;6.994;2022-08-21T01:31:51;63.08;;;59.67;;
8544;SDS011;4310;51.054;6.994;2022-08-21T01:32:55;64.25;;;60.63;;
8544;SDS011;4310;51.054;6.994;2022-08-21T01:35:12;61.60;;;58.38;;
8544;SDS011;4310;51.054;6.994;2022-08-21T01:36:16;61.42;;;58.02;;
8544;SDS011;4310;51.054;6.994;2022-08-21T01:37:21;58.80;;;55.58;;
8544;SDS011;4310;51.054;6.994;2022-08-21T01:38:25;60.45;;;57.03;;
8544;SDS011;4310;51.054;6.994;2022-08-21T01:39:29;59.23;;;55.75;;
8544;SDS011;4310;51.054;6.994;2022-08-21T01:40:33;57.25;;;54.13;;
8544;SDS011;4310;51.054;6.994;2022-08-21T01:41:37;57.75;;;54.63;;
8544;SDS011;4310;51.054;6.994;2022-08-21T01:42:41;60.12;;;56.60;;
8544;SDS011;4310;51.054;6.994;2022-08-21T01:43:45;58.58;;;55.15;;
8544;SDS011;4310;51.054;6.994;2022-08-21T01:44:48;58.50;;;54.88;;
8544;SDS011;4310;51.054;6.994;2022-08-21T01:45:52;57.55;;;54.13;;
8544;SDS011;4310;51.054;6.994;2022-08-21T01:46:57;57.05;;;53.85;;
8544;SDS011;4310;51.054;6.994;2022-08-21T01:49:12;61.23;;;57.75;;
8544;SDS011;4310;51.054;6.994;2022-08-21T01:50:18;59.08;;;55.83;;
8544;SDS011;4310;51.054;6.994;2022-08-21T01:51:22;60.88;;;57.30;;
8544;SDS011;4310;51.054;6.994;2022-08-21T01:52:26;63.25;;;59.60;;
8544;SDS011;4310;51.054;6.994;2022-08-21T01:53:30;62.20;;;58.58;;
8544;SDS011;4310;51.054;6.994;2022-08-21T01:54:34;66.28;;;62.62;;
8544;SDS011;4310;51.054;6.994;2022-08-21T01:55:38;65.57;;;61.95;;
8544;SDS011;4310;51.054;6.994;2022-08-21T01:56:42;61.13;;;57.65;;
8544;SDS011;4310;51.054;6.994;2022-08-21T01:57:47;63.75;;;60.28;;
8544;SDS011;4310;51.054;6.994;2022-08-21T02:00:03;60.65;;;57.20;;
8544;SDS011;4310;51.054;6.994;2022-08-21T02:01:08;60.80;;;57.40;;
8544;SDS011;4310;51.054;6.994;2022-08-21T02:02:12;56.50;;;53.30;;
8544;SDS011;4310;51.054;6.994;2022-08-21T02:03:16;60.40;;;57.05;;
8544;SDS011;4310;51.054;6.994;2022-08-21T02:04:20;61.70;;;58.30;;
8544;SDS011;4310;51.054;6.994;2022-08-21T02:05:24;59.63;;;56.15;;
8544;SDS011;4310;51.054;6.994;2022-08-21T02:06:28;60.70;;;57.13;;
8544;SDS011;4310;51.054;6.994;2022-08-21T02:07:36;58.48;;;55.05;;
8544;SDS011;4310;51.054;6.994;2022-08-21T02:08:40;58.38;;;55.03;;
8544;SDS011;4310;51.054;6.994;2022-08-21T02:09:44;59.38;;;56.08;;
8544;SDS011;4310;51.054;6.994;2022-08-21T02:10:48;62.20;;;58.70;;
8544;SDS011;4310;51.054;6.994;2022-08-21T02:11:52;59.90;;;56.37;;
8544;SDS011;4310;51.054;6.994;2022-08-21T02:12:57;58.08;;;54.75;;
8544;SDS011;4310;51.054;6.994;2022-08-21T02:15:13;56.77;;;53.42;;
8544;SDS011;4310;51.054;6.994;2022-08-21T02:16:17;58.02;;;54.70;;
8544;SDS011;4310;51.054;6.994;2022-08-21T02:17:21;56.25;;;52.95;;
8544;SDS011;4310;51.054;6.994;2022-08-21T02:18:25;53.75;;;50.65;;
8544;SDS011;4310;51.054;6.994;2022-08-21T02:19:28;52.38;;;49.25;;
8544;SDS011;4310;51.054;6.994;2022-08-21T02:20:33;52.48;;;49.45;;
8544;SDS011;4310;51.054;6.994;2022-08-21T02:21:37;53.30;;;50.10;;
8544;SDS011;4310;51.054;6.994;2022-08-21T02:22:41;51.63;;;48.45;;
8544;SDS011;4310;51.054;6.994;2022-08-21T02:23:45;50.90;;;47.80;;
8544;SDS011;4310;51.054;6.994;2022-08-21T02:24:49;55.13;;;51.90;;
8544;SDS011;4310;51.054;6.994;2022-08-21T02:27:04;52.27;;;49.10;;
8544;SDS011;4310;51.054;6.994;2022-08-21T02:28:09;53.63;;;50.43;;
8544;SDS011;4310;51.054;6.994;2022-08-21T02:29:13;54.00;;;50.90;;
8544;SDS011;4310;51.054;6.994;2022-08-21T02:30:18;56.13;;;52.75;;
8544;SDS011;4310;51.054;6.994;2022-08-21T02:31:22;54.18;;;51.08;;
8544;SDS011;4310;51.054;6.994;2022-08-21T02:32:27;58.17;;;54.75;;
8544;SDS011;4310;51.054;6.994;2022-08-21T02:33:30;57.98;;;54.63;;
8544;SDS011;4310;51.054;6.994;2022-08-21T02:34:34;56.53;;;53.08;;
8544;SDS011;4310;51.054;6.994;2022-08-21T02:36:49;55.85;;;52.70;;
8544;SDS011;4310;51.054;6.994;2022-08-21T02:37:54;53.95;;;50.78;;
8544;SDS011;4310;51.054;6.994;2022-08-21T02:38:58;56.08;;;52.70;;
8544;SDS011;4310;51.054;6.994;2022-08-21T02:40:02;56.42;;;53.10;;
8544;SDS011;4310;51.054;6.994;2022-08-21T02:41:07;55.23;;;51.95;;
8544;SDS011;4310;51.054;6.994;2022-08-21T02:42:11;52.15;;;49.08;;
8544;SDS011;4310;51.054;6.994;2022-08-21T02:43:15;55.95;;;52.70;;
8544;SDS011;4310;51.054;6.994;2022-08-21T02:45:32;57.48;;;54.18;;
8544;SDS011;4310;51.054;6.994;2022-08-21T02:46:36;57.10;;;53.85;;
8544;SDS011;4310;51.054;6.994;2022-08-21T02:47:40;58.58;;;55.15;;
8544;SDS011;4310;51.054;6.994;2022-08-21T02:48:44;59.88;;;56.23;;
8544;SDS011;4310;51.054;6.994;2022-08-21T02:49:48;63.50;;;59.88;;
8544;SDS011;4310;51.054;6.994;2022-08-21T02:50:53;60.20;;;56.60;;
8544;SDS011;4310;51.054;6.994;2022-08-21T02:51:57;62.78;;;59.35;;
8544;SDS011;4310;51.054;6.994;2022-08-21T02:53:01;65.80;;;62.00;;
8544;SDS011;4310;51.054;6.994;2022-08-21T02:54:05;62.55;;;58.90;;
8544;SDS011;4310;51.054;6.994;2022-08-21T02:55:09;64.65;;;61.05;;
8544;SDS011;4310;51.054;6.994;2022-08-21T02:56:14;64.65;;;61.05;;
8544;SDS011;4310;51.054;6.994;2022-08-21T02:57:18;64.82;;;60.92;;
8544;SDS011;4310;51.054;6.994;2022-08-21T02:58:23;61.23;;;57.73;;
8544;SDS011;4310;51.054;6.994;2022-08-21T03:00:38;62.67;;;59.15;;
8544;SDS011;4310;51.054;6.994;2022-08-21T03:01:42;64.87;;;61.18;;
8544;SDS011;4310;51.054;6.994;2022-08-21T03:03:57;69.80;;;65.90;;
8544;SDS011;4310;51.054;6.994;2022-08-21T03:05:02;72.43;;;68.63;;
8544;SDS011;4310;51.054;6.994;2022-08-21T03:06:06;72.12;;;68.12;;
8544;SDS011;4310;51.054;6.994;2022-08-21T03:07:10;73.72;;;69.53;;
8544;SDS011;4310;51.054;6.994;2022-08-21T03:08:15;68.87;;;65.08;;
8544;SDS011;4310;51.054;6.994;2022-08-21T03:09:18;72.10;;;68.20;;
8544;SDS011;4310;51.054;6.994;2022-08-21T03:10:22;67.97;;;64.15;;
8544;SDS011;4310;51.054;6.994;2022-08-21T03:11:27;68.12;;;64.20;;
8544;SDS011;4310;51.054;6.994;2022-08-21T03:12:31;67.25;;;63.30;;
8544;SDS011;4310;51.054;6.994;2022-08-21T03:13:34;65.93;;;62.13;;
8544;SDS011;4310;51.054;6.994;2022-08-21T03:14:38;67.03;;;63.00;;
8544;SDS011;4310;51.054;6.994;2022-08-21T03:15:42;63.02;;;59.18;;
8544;SDS011;4310;51.054;6.994;2022-08-21T03:16:46;65.20;;;61.45;;
8544;SDS011;4310;51.054;6.994;2022-08-21T03:17:50;64.07;;;60.48;;
8544;SDS011;4310;51.054;6.994;2022-08-21T03:18:55;62.10;;;58.70;;
8544;SDS011;4310;51.054;6.994;2022-08-21T03:19:59;60.85;;;57.10;;
8544;SDS011;4310;51.054;6.994;2022-08-21T03:21:03;61.40;;;57.83;;
8544;SDS011;4310;51.054;6.994;2022-08-21T03:22:08;60.05;;;56.40;;
8544;SDS011;4310;51.054;6.994;2022-08-21T03:23:12;60.03;;;56.33;;
8544;SDS011;4310;51.054;6.994;2022-08-21T03:24:16;61.33;;;57.73;;
8544;SDS011;4310;51.054;6.994;2022-08-21T03:25:19;60.63;;;57.03;;
8544;SDS011;4310;51.054;6.994;2022-08-21T03:26:23;61.70;;;58.00;;
8544;SDS011;4310;51.054;6.994;2022-08-21T03:28:39;57.93;;;54.53;;
8544;SDS011;4310;51.054;6.994;2022-08-21T03:29:43;61.73;;;58.10;;
8544;SDS011;4310;51.054;6.994;2022-08-21T03:30:47;61.45;;;57.90;;
8544;SDS011;4310;51.054;6.994;2022-08-21T03:31:52;63.40;;;59.83;;
8544;SDS011;4310;51.054;6.994;2022-08-21T03:32:56;62.53;;;58.83;;
8544;SDS011;4310;51.054;6.994;2022-08-21T03:34:00;63.10;;;59.50;;
8544;SDS011;4310;51.054;6.994;2022-08-21T03:35:05;60.92;;;57.53;;
8544;SDS011;4310;51.054;6.994;2022-08-21T03:36:09;58.95;;;55.63;;
8544;SDS011;4310;51.054;6.994;2022-08-21T03:38:24;62.85;;;59.15;;
8544;SDS011;4310;51.054;6.994;2022-08-21T03:39:29;59.73;;;56.13;;
8544;SDS011;4310;51.054;6.994;2022-08-21T03:40:33;54.95;;;51.80;;
8544;SDS011;4310;51.054;6.994;2022-08-21T03:41:37;60.38;;;56.75;;
8544;SDS011;4310;51.054;6.994;2022-08-21T03:43:52;59.18;;;55.88;;
8544;SDS011;4310;51.054;6.994;2022-08-21T03:44:56;60.28;;;56.88;;
8544;SDS011;4310;51.054;6.994;2022-08-21T03:46:01;60.50;;;57.13;;
8544;SDS011;4310;51.054;6.994;2022-08-21T03:47:05;61.37;;;57.75;;
8544;SDS011;4310;51.054;6.994;2022-08-21T03:49:21;58.68;;;55.30;;
8544;SDS011;4310;51.054;6.994;2022-08-21T03:50:25;60.45;;;56.85;;
8544;SDS011;4310;51.054;6.994;2022-08-21T03:51:29;58.75;;;55.50;;
8544;SDS011;4310;51.054;6.994;2022-08-21T03:52:35;59.55;;;56.35;;
8544;SDS011;4310;51.054;6.994;2022-08-21T03:54:50;60.35;;;56.95;;
8544;SDS011;4310;51.054;6.994;2022-08-21T03:55:54;62.43;;;58.73;;
8544;SDS011;4310;51.054;6.994;2022-08-21T03:56:59;59.20;;;55.63;;
8544;SDS011;4310;51.054;6.994;2022-08-21T03:58:03;56.73;;;53.45;;
8544;SDS011;4310;51.054;6.994;2022-08-21T04:00:19;62.78;;;59.18;;
8544;SDS011;4310;51.054;6.994;2022-08-21T04:01:24;65.43;;;61.83;;
8544;SDS011;4310;51.054;6.994;2022-08-21T04:02:27;64.65;;;61.05;;
8544;SDS011;4310;51.054;6.994;2022-08-21T04:03:31;66.95;;;63.15;;
8544;SDS011;4310;51.054;6.994;2022-08-21T04:04:35;64.92;;;61.42;;
8544;SDS011;4310;51.054;6.994;2022-08-21T04:05:39;64.00;;;60.30;;
8544;SDS011;4310;51.054;6.994;2022-08-21T04:06:43;68.57;;;64.80;;
8544;SDS011;4310;51.054;6.994;2022-08-21T04:07:47;68.92;;;65.12;;
8544;SDS011;4310;51.054;6.994;2022-08-21T04:08:50;68.50;;;64.87;;
8544;SDS011;4310;51.054;6.994;2022-08-21T04:09:54;66.02;;;62.40;;
8544;SDS011;4310;51.054;6.994;2022-08-21T04:10:58;70.70;;;66.72;;
8544;SDS011;4310;51.054;6.994;2022-08-21T04:12:02;70.50;;;66.45;;
8544;SDS011;4310;51.054;6.994;2022-08-21T04:13:07;72.55;;;68.45;;
8544;SDS011;4310;51.054;6.994;2022-08-21T04:14:11;73.65;;;69.42;;
8544;SDS011;4310;51.054;6.994;2022-08-21T04:15:14;69.80;;;66.07;;
8544;SDS011;4310;51.054;6.994;2022-08-21T04:16:18;72.32;;;68.42;;
8544;SDS011;4310;51.054;6.994;2022-08-21T04:17:22;74.17;;;70.22;;
8544;SDS011;4310;51.054;6.994;2022-08-21T04:18:26;74.53;;;70.50;;
8544;SDS011;4310;51.054;6.994;2022-08-21T04:19:29;73.85;;;69.62;;
8544;SDS011;4310;51.054;6.994;2022-08-21T04:20:33;73.60;;;69.40;;
8544;SDS011;4310;51.054;6.994;2022-08-21T04:21:37;73.12;;;69.30;;
8544;SDS011;4310;51.054;6.994;2022-08-21T04:22:41;71.33;;;67.60;;
8544;SDS011;4310;51.054;6.994;2022-08-21T04:23:46;75.83;;;71.73;;
8544;SDS011;4310;51.054;6.994;2022-08-21T04:24:50;72.25;;;68.28;;
8544;SDS011;4310;51.054;6.994;2022-08-21T04:25:54;71.07;;;67.45;;
8544;SDS011;4310;51.054;6.994;2022-08-21T04:26:58;69.20;;;65.65;;
8544;SDS011;4310;51.054;6.994;2022-08-21T04:28:02;72.10;;;68.22;;
8544;SDS011;4310;51.054;6.994;2022-08-21T04:29:06;73.25;;;69.20;;
8544;SDS011;4310;51.054;6.994;2022-08-21T04:30:11;71.12;;;67.08;;
8544;SDS011;4310;51.054;6.994;2022-08-21T04:31:15;70.52;;;66.62;;
8544;SDS011;4310;51.054;6.994;2022-08-21T04:32:21;72.60;;;68.62;;
8544;SDS011;4310;51.054;6.994;2022-08-21T04:34:37;76.33;;;71.92;;
8544;SDS011;4310;51.054;6.994;2022-08-21T04:35:40;78.70;;;74.58;;
8544;SDS011;4310;51.054;6.994;2022-08-21T04:36:45;72.30;;;68.28;;
8544;SDS011;4310;51.054;6.994;2022-08-21T04:37:49;75.10;;;70.70;;
8544;SDS011;4310;51.054;6.994;2022-08-21T04:38:52;73.87;;;69.67;;
8544;SDS011;4310;51.054;6.994;2022-08-21T04:39:56;71.85;;;67.75;;
8544;SDS011;4310;51.054;6.994;2022-08-21T04:41:00;71.45;;;67.55;;
8544;SDS011;4310;51.054;6.994;2022-08-21T04:42:04;67.67;;;64.00;;
8544;SDS011;4310;51.054;6.994;2022-08-21T04:43:09;68.42;;;64.82;;
8544;SDS011;4310;51.054;6.994;2022-08-21T04:44:13;73.15;;;68.85;;
8544;SDS011;4310;51.054;6.994;2022-08-21T04:45:19;70.35;;;66.57;;
8544;SDS011;4310;51.054;6.994;2022-08-21T04:47:34;68.50;;;64.65;;
8544;SDS011;4310;51.054;6.994;2022-08-21T04:48:38;64.15;;;60.33;;
8544;SDS011;4310;51.054;6.994;2022-08-21T04:49:43;65.08;;;61.48;;
8544;SDS011;4310;51.054;6.994;2022-08-21T04:50:49;68.70;;;64.92;;
8544;SDS011;4310;51.054;6.994;2022-08-21T04:51:52;63.23;;;59.73;;
8544;SDS011;4310;51.054;6.994;2022-08-21T04:52:56;67.78;;;63.92;;
8544;SDS011;4310;51.054;6.994;2022-08-21T04:54:00;69.90;;;65.87;;
8544;SDS011;4310;51.054;6.994;2022-08-21T04:55:06;67.85;;;64.03;;
8544;SDS011;4310;51.054;6.994;2022-08-21T04:56:11;66.85;;;63.02;;
8544;SDS011;4310;51.054;6.994;2022-08-21T04:57:15;67.12;;;63.35;;
8544;SDS011;4310;51.054;6.994;2022-08-21T04:58:20;61.80;;;58.20;;
8544;SDS011;4310;51.054;6.994;2022-08-21T04:59:26;64.80;;;60.80;;
8544;SDS011;4310;51.054;6.994;2022-08-21T05:00:29;61.30;;;57.75;;
8544;SDS011;4310;51.054;6.994;2022-08-21T05:02:44;60.70;;;57.17;;
8544;SDS011;4310;51.054;6.994;2022-08-21T05:03:50;60.83;;;57.53;;
8544;SDS011;4310;51.054;6.994;2022-08-21T05:04:55;62.90;;;59.10;;
8544;SDS011;4310;51.054;6.994;2022-08-21T05:05:59;59.48;;;55.95;;
8544;SDS011;4310;51.054;6.994;2022-08-21T05:07:04;57.43;;;54.13;;
8544;SDS011;4310;51.054;6.994;2022-08-21T05:08:09;56.02;;;52.85;;
8544;SDS011;4310;51.054;6.994;2022-08-21T05:09:15;57.23;;;53.83;;
8544;SDS011;4310;51.054;6.994;2022-08-21T05:10:19;56.57;;;53.17;;
8544;SDS011;4310;51.054;6.994;2022-08-21T05:11:24;56.70;;;53.50;;
8544;SDS011;4310;51.054;6.994;2022-08-21T05:12:28;55.63;;;52.23;;
8544;SDS011;4310;51.054;6.994;2022-08-21T05:14:43;50.52;;;47.33;;
8544;SDS011;4310;51.054;6.994;2022-08-21T05:15:47;50.35;;;47.35;;
8544;SDS011;4310;51.054;6.994;2022-08-21T05:16:51;47.25;;;44.40;;
8544;SDS011;4310;51.054;6.994;2022-08-21T05:17:54;48.15;;;44.98;;
8544;SDS011;4310;51.054;6.994;2022-08-21T05:18:58;49.48;;;46.37;;
8544;SDS011;4310;51.054;6.994;2022-08-21T05:20:02;49.13;;;46.13;;
8544;SDS011;4310;51.054;6.994;2022-08-21T05:21:06;47.67;;;44.58;;
8544;SDS011;4310;51.054;6.994;2022-08-21T05:22:10;46.68;;;43.95;;
8544;SDS011;4310;51.054;6.994;2022-08-21T05:23:14;44.98;;;42.15;;
8544;SDS011;4310;51.054;6.994;2022-08-21T05:24:18;48.65;;;45.55;;
8544;SDS011;4310;51.054;6.994;2022-08-21T05:25:22;46.30;;;43.40;;
8544;SDS011;4310;51.054;6.994;2022-08-21T05:26:26;43.63;;;40.70;;
8544;SDS011;4310;51.054;6.994;2022-08-21T05:27:29;45.52;;;42.73;;
8544;SDS011;4310;51.054;6.994;2022-08-21T05:28:34;43.25;;;40.63;;
8544;SDS011;4310;51.054;6.994;2022-08-21T05:29:38;41.92;;;39.23;;
8544;SDS011;4310;51.054;6.994;2022-08-21T05:30:41;43.23;;;40.33;;
8544;SDS011;4310;51.054;6.994;2022-08-21T05:31:46;40.30;;;37.45;;
8544;SDS011;4310;51.054;6.994;2022-08-21T05:34:01;40.60;;;38.00;;
8544;SDS011;4310;51.054;6.994;2022-08-21T05:35:05;37.85;;;35.40;;
8544;SDS011;4310;51.054;6.994;2022-08-21T05:36:09;37.65;;;35.15;;
8544;SDS011;4310;51.054;6.994;2022-08-21T05:38:25;34.55;;;32.15;;
8544;SDS011;4310;51.054;6.994;2022-08-21T05:40:41;33.50;;;31.10;;
8544;SDS011;4310;51.054;6.994;2022-08-21T05:41:45;30.57;;;28.47;;
8544;SDS011;4310;51.054;6.994;2022-08-21T05:42:50;30.60;;;28.40;;
8544;SDS011;4310;51.054;6.994;2022-08-21T05:43:54;27.98;;;26.02;;
8544;SDS011;4310;51.054;6.994;2022-08-21T05:44:58;27.37;;;25.30;;
8544;SDS011;4310;51.054;6.994;2022-08-21T05:46:01;26.00;;;24.15;;
8544;SDS011;4310;51.054;6.994;2022-08-21T05:47:07;27.17;;;25.05;;
8544;SDS011;4310;51.054;6.994;2022-08-21T05:48:12;25.45;;;23.45;;
8544;SDS011;4310;51.054;6.994;2022-08-21T05:49:16;25.50;;;23.60;;
8544;SDS011;4310;51.054;6.994;2022-08-21T05:50:20;25.45;;;23.30;;
8544;SDS011;4310;51.054;6.994;2022-08-21T05:51:23;26.37;;;24.02;;
8544;SDS011;4310;51.054;6.994;2022-08-21T05:52:27;26.23;;;24.32;;
8544;SDS011;4310;51.054;6.994;2022-08-21T05:53:31;24.57;;;22.87;;
8544;SDS011;4310;51.054;6.994;2022-08-21T05:54:36;25.52;;;23.42;;
8544;SDS011;4310;51.054;6.994;2022-08-21T05:55:40;24.37;;;22.37;;
8544;SDS011;4310;51.054;6.994;2022-08-21T05:57:56;20.05;;;18.35;;
8544;SDS011;4310;51.054;6.994;2022-08-21T05:59:00;17.83;;;16.13;;
8544;SDS011;4310;51.054;6.994;2022-08-21T06:00:04;16.12;;;14.63;;
8544;SDS011;4310;51.054;6.994;2022-08-21T06:01:08;15.20;;;13.75;;
8544;SDS011;4310;51.054;6.994;2022-08-21T06:02:12;15.15;;;12.75;;
8544;SDS011;4310;51.054;6.994;2022-08-21T06:03:17;13.25;;;11.95;;
8544;SDS011;4310;51.054;6.994;2022-08-21T06:04:21;14.10;;;10.90;;
8544;SDS011;4310;51.054;6.994;2022-08-21T06:05:25;12.23;;;11.03;;
8544;SDS011;4310;51.054;6.994;2022-08-21T06:06:29;14.55;;;11.30;;
8544;SDS011;4310;51.054;6.994;2022-08-21T06:07:33;14.78;;;10.75;;
8544;SDS011;4310;51.054;6.994;2022-08-21T06:08:37;11.60;;;10.30;;
8544;SDS011;4310;51.054;6.994;2022-08-21T06:09:41;11.30;;;9.93;;
8544;SDS011;4310;51.054;6.994;2022-08-21T06:10:45;10.15;;;9.10;;
8544;SDS011;4310;51.054;6.994;2022-08-21T06:11:49;11.65;;;9.75;;
8544;SDS011;4310;51.054;6.994;2022-08-21T06:12:53;12.28;;;9.33;;
8544;SDS011;4310;51.054;6.994;2022-08-21T06:15:09;13.28;;;9.95;;
8544;SDS011;4310;51.054;6.994;2022-08-21T06:16:13;11.73;;;9.45;;
8544;SDS011;4310;51.054;6.994;2022-08-21T06:17:17;12.37;;;9.15;;
8544;SDS011;4310;51.054;6.994;2022-08-21T06:18:21;14.75;;;9.48;;
8544;SDS011;4310;51.054;6.994;2022-08-21T06:19:25;13.50;;;9.28;;
8544;SDS011;4310;51.054;6.994;2022-08-21T06:20:29;10.63;;;8.80;;
8544;SDS011;4310;51.054;6.994;2022-08-21T06:21:33;11.33;;;9.58;;
8544;SDS011;4310;51.054;6.994;2022-08-21T06:22:37;11.38;;;9.20;;
8544;SDS011;4310;51.054;6.994;2022-08-21T06:23:41;12.85;;;9.30;;
8544;SDS011;4310;51.054;6.994;2022-08-21T06:24:45;11.53;;;9.00;;
8544;SDS011;4310;51.054;6.994;2022-08-21T06:25:49;10.60;;;8.93;;
8544;SDS011;4310;51.054;6.994;2022-08-21T06:26:54;13.13;;;9.33;;
8544;SDS011;4310;51.054;6.994;2022-08-21T06:28:01;12.03;;;8.88;;
8544;SDS011;4310;51.054;6.994;2022-08-21T06:29:05;11.60;;;9.20;;
8544;SDS011;4310;51.054;6.994;2022-08-21T06:30:11;10.55;;;8.83;;
8544;SDS011;4310;51.054;6.994;2022-08-21T06:32:37;11.70;;;8.48;;
8544;SDS011;4310;51.054;6.994;2022-08-21T06:33:41;13.93;;;8.63;;
8544;SDS011;4310;51.054;6.994;2022-08-21T06:34:45;10.68;;;8.93;;
8544;SDS011;4310;51.054;6.994;2022-08-21T06:35:49;10.75;;;8.53;;
8544;SDS011;4310;51.054;6.994;2022-08-21T06:36:53;12.43;;;9.13;;
8544;SDS011;4310;51.054;6.994;2022-08-21T06:39:08;10.63;;;9.08;;
8544;SDS011;4310;51.054;6.994;2022-08-21T06:40:12;12.23;;;8.98;;
8544;SDS011;4310;51.054;6.994;2022-08-21T06:41:15;11.65;;;9.88;;
8544;SDS011;4310;51.054;6.994;2022-08-21T06:42:19;11.38;;;9.15;;
8544;SDS011;4310;51.054;6.994;2022-08-21T06:43:23;11.23;;;9.23;;
8544;SDS011;4310;51.054;6.994;2022-08-21T06:44:28;11.35;;;8.80;;
8544;SDS011;4310;51.054;6.994;2022-08-21T06:45:32;13.80;;;9.33;;
8544;SDS011;4310;51.054;6.994;2022-08-21T06:46:36;12.82;;;9.60;;
8544;SDS011;4310;51.054;6.994;2022-08-21T06:47:40;9.57;;;8.57;;
8544;SDS011;4310;51.054;6.994;2022-08-21T06:48:44;10.10;;;8.73;;
8544;SDS011;4310;51.054;6.994;2022-08-21T06:49:48;9.73;;;8.40;;
8544;SDS011;4310;51.054;6.994;2022-08-21T06:50:51;13.15;;;9.03;;
8544;SDS011;4310;51.054;6.994;2022-08-21T06:51:55;11.68;;;8.55;;
8544;SDS011;4310;51.054;6.994;2022-08-21T06:53:00;13.15;;;8.90;;
8544;SDS011;4310;51.054;6.994;2022-08-21T06:54:04;11.40;;;9.10;;
8544;SDS011;4310;51.054;6.994;2022-08-21T06:55:08;12.98;;;9.78;;
8544;SDS011;4310;51.054;6.994;2022-08-21T06:56:13;13.55;;;8.75;;
8544;SDS011;4310;51.054;6.994;2022-08-21T06:58:28;12.53;;;9.13;;
8544;SDS011;4310;51.054;6.994;2022-08-21T06:59:33;11.90;;;8.93;;
8544;SDS011;4310;51.054;6.994;2022-08-21T07:00:39;11.78;;;8.60;;
8544;SDS011;4310;51.054;6.994;2022-08-21T07:01:43;11.53;;;8.65;;
8544;SDS011;4310;51.054;6.994;2022-08-21T07:02:47;10.28;;;8.10;;
8544;SDS011;4310;51.054;6.994;2022-08-21T07:03:51;10.40;;;7.60;;
8544;SDS011;4310;51.054;6.994;2022-08-21T07:04:54;12.82;;;8.18;;
8544;SDS011;4310;51.054;6.994;2022-08-21T07:05:58;13.72;;;8.38;;
8544;SDS011;4310;51.054;6.994;2022-08-21T07:07:02;12.13;;;8.03;;
8544;SDS011;4310;51.054;6.994;2022-08-21T07:08:06;12.75;;;7.75;;
8544;SDS011;4310;51.054;6.994;2022-08-21T07:09:10;11.83;;;7.80;;